UWKD

Kazan International Airport

Kazan, Russian Federation
TAF UWKD 141959Z 1421/1521 02005G12MPS 5000 -SN BR BKN011 TXM06/1421Z TNM09/1501Z TEMPO 1421/1506 05007G14MPS 2000 BR SCT005 BKN007 TEMPO 1506/1512 3100 -SN BR
Issued Valid From Valid To
Dec-14 @ 19:59 UTC
(2 hours ago)
Dec-14 @ 21:00 UTC
(an hour ago)
Dec-15 @ 21:00 UTC
(in 23 hours)
Dec-14 @ 21:00 to Dec-15 @ 21:00
TAF UWKD 141959Z 1421/1521 02005G12MPS 5000 -SN BR BKN011 TXM06/1421Z TNM09/1501Z
Wind Visibility Clouds Conditions
20° at 10 knots
 Gusting to 23 knots
5,005 meters
  • Broken at 1,100' AGL
  • Light Snow
  • Mist
Temporary Dec-14 @ 21:00 to Dec-15 @ 06:00
TEMPO 1421/1506 05007G14MPS 2000 BR SCT005 BKN007
Wind Visibility Clouds Conditions
50° at 14 knots
 Gusting to 27 knots
1,996 meters
  • Scattered at 500' AGL
  • Broken at 700' AGL
  • Mist
Temporary Dec-15 @ 06:00 to Dec-15 @ 12:00
TEMPO 1506/1512 3100 -SN BR
Visibility Conditions
3,106 meters
  • Light Snow
  • Mist
TAF UWKD 141959Z 1421/1521 02005G12MPS 5000 -SN BR BKN011 TXM06/1421Z TNM09/1501Z TEMPO 1421/1506 05007G14MPS 2000 BR SCT005 BKN007 TEMPO 1506/1512 3100 -SN BR
Issued Dec-14 @ 19:59 UTC
(2 hours ago)
Valid From Dec-14 @ 21:00 UTC
(an hour ago)
Valid To Dec-15 @ 21:00 UTC
(in 23 hours)
Dec-14 @ 21:00 - Dec-15 @ 21:00
Wind Visibility
20° at 10 knots
 Gusting to 23 knots
5,005 meters
Clouds
  • Broken at 1,100' AGL
Conditions
  • Light Snow
  • Mist
Temporary Dec-14 @ 21:00 - Dec-15 @ 06:00
Wind Visibility
50° at 14 knots
 Gusting to 27 knots
1,996 meters
Clouds
  • Scattered at 500' AGL
  • Broken at 700' AGL
Conditions
  • Mist
Temporary Dec-15 @ 06:00 - Dec-15 @ 12:00
Conditions
  • Light Snow
  • Mist